Time;durP1;ratioP1;P1;durP2;ratioP2;P2;SDS_P1;SDS_P2;PMS_P1;PMS_P2;Temp;Humidity;BMP_temperature;BMP_pressure;BME280_temperature;BME280_humidity;BME280_pressure;Samples;Min_cycle;Max_cycle;Signal;HPM_P1;HPM_P2
2022/02/09 00:00:14;;;;;;;;;;;;;;;11.17;100.00;99378.38;5070564;27;19930;-84
2022/02/09 00:03:00;;;;;;;;;;;;;;;10.99;100.00;99372.22;5086869;27;20271;-85
2022/02/09 00:05:41;;;;;;;;;;;;;;;10.94;100.00;99364.28;5086450;27;20375;-85
2022/02/09 00:08:10;;;;;;;;;;;;;;;10.85;100.00;99369.59;5120443;27;20366;-84
2022/02/09 00:10:40;;;;;;;;;;;;;;;10.83;100.00;99375.63;5120103;27;19923;-84
2022/02/09 00:23:30;;;;;;;;;;;;;;;11.09;100.00;99374.09;5120043;27;19951;-84
2022/02/09 00:43:03;;;;;;;;;;;;;;;10.99;100.00;99347.06;5054830;28;19928;-84
2022/02/09 01:38:07;;;;;;;;;;;;;;;11.22;100.00;99324.78;5081663;28;19931;-84
2022/02/09 01:57:16;;;;;;;;;;;;;;;11.18;100.00;99324.03;5033460;28;19929;-85
2022/02/09 01:59:47;;;;;;;;;;;;;;;11.04;100.00;99301.88;5016701;28;19932;-85
2022/02/09 02:02:17;;;;;;;;;;;;;;;11.08;100.00;99311.00;5016613;28;20297;-84
2022/02/09 02:04:46;;;;;;;;;;;;;;;10.97;100.00;99307.53;5032947;28;19965;-84
2022/02/09 02:07:26;;;;;;;;;;;;;;;11.22;100.00;99318.38;5000553;28;19929;-84
2022/02/09 02:10:03;;;;;;;;;;;;;;;11.09;100.00;99306.97;5016700;28;19925;-85
2022/02/09 02:12:48;;;;;;;;;;;;;;;11.13;100.00;99316.13;5030629;28;19926;-84
2022/02/09 02:15:45;;;;;;;;;;;;;;;10.98;100.00;99323.09;5016237;28;20460;-84
2022/02/09 02:18:05;;;;;;;;;;;;;;;10.97;100.00;99318.72;5000610;28;20392;-85
2022/02/09 02:23:44;;;;;;;;;;;;;;;10.98;100.00;99315.50;5060461;28;19928;-85
2022/02/09 02:35:10;;;;;;;;;;;;;;;10.52;100.00;99311.72;5077329;28;19933;-85
2022/02/09 02:57:08;;;;;;;;;;;;;;;10.62;100.00;99305.19;5060624;28;19983;-84
2022/02/09 02:59:45;;;;;;;;;;;;;;;10.56;100.00;99302.09;5059513;28;19924;-84
2022/02/09 03:13:34;;;;;;;;;;;;;;;10.63;100.00;99304.00;5077883;28;19924;-84
2022/02/09 03:15:58;;;;;;;;;;;;;;;10.56;100.00;99299.28;5090043;28;19971;-84
2022/02/09 03:43:46;;;;;;;;;;;;;;;10.48;100.00;99302.59;5093683;28;19962;-84
2022/02/09 03:52:11;;;;;;;;;;;;;;;10.65;100.00;99295.97;5092992;28;19983;-84
2022/02/09 03:54:53;;;;;;;;;;;;;;;10.64;100.00;99300.00;5042987;28;19978;-84
2022/02/09 03:57:31;;;;;;;;;;;;;;;10.70;100.00;99303.91;5042990;28;19928;-84
2022/02/09 04:00:00;;;;;;;;;;;;;;;10.59;100.00;99303.25;5092683;28;19930;-84
2022/02/09 04:02:29;;;;;;;;;;;;;;;10.54;100.00;99298.91;5076408;28;19969;-83
2022/02/09 04:04:57;;;;;;;;;;;;;;;10.63;100.00;99317.97;5060009;28;19930;-84
2022/02/09 04:07:26;;;;;;;;;;;;;;;9.64;100.00;99320.16;5092767;28;19973;-84
2022/02/09 04:09:59;;;;;;;;;;;;;;;8.86;100.00;99336.63;5076368;28;19966;-83
2022/02/09 04:20:16;;;;;;;;;;;;;;;8.37;100.00;99326.47;5078977;28;19924;-83
2022/02/09 04:37:04;;;;;;;;;;;;;;;8.42;100.00;99353.88;5099737;28;19924;-83
2022/02/09 04:39:53;;;;;;;;;;;;;;;8.37;100.00;99354.31;5065437;28;19924;-83
2022/02/09 04:42:46;;;;;;;;;;;;;;;8.50;100.00;99347.09;5116736;28;19977;-83
2022/02/09 04:51:14;;;;;;;;;;;;;;;8.64;100.00;99349.84;5116820;28;19924;-83
2022/02/09 05:05:05;;;;;;;;;;;;;;;8.92;100.00;99344.13;5082345;28;19923;-83
2022/02/09 05:24:38;;;;;;;;;;;;;;;8.45;100.00;99346.72;5098801;28;19935;-83
2022/02/09 05:30:09;;;;;;;;;;;;;;;8.59;100.00;99355.81;5083348;28;20015;-83
2022/02/09 05:32:39;;;;;;;;;;;;;;;8.53;100.00;99346.28;5065736;28;19927;-83
2022/02/09 05:35:12;;;;;;;;;;;;;;;8.38;100.00;99338.38;5083854;27;20378;-83
2022/02/09 05:37:39;;;;;;;;;;;;;;;8.54;100.00;99361.78;5097349;28;19977;-83
2022/02/09 05:40:07;;;;;;;;;;;;;;;8.45;100.00;99355.84;5063898;28;20252;-83
2022/02/09 05:42:34;;;;;;;;;;;;;;;8.52;100.00;99355.84;5108098;28;20403;-83
2022/02/09 05:45:07;;;;;;;;;;;;;;;8.53;100.00;99343.50;5081298;28;19984;-83
2022/02/09 05:53:05;;;;;;;;;;;;;;;8.60;100.00;99367.75;5097836;28;19973;-83
2022/02/09 05:55:44;;;;;;;;;;;;;;;8.49;100.00;99353.88;5048287;28;19924;-83
2022/02/09 06:00:55;;;;;;;;;;;;;;;8.37;100.00;99348.75;5081289;28;19947;-84
2022/02/09 06:03:26;;;;;;;;;;;;;;;8.28;100.00;99351.16;5064706;28;20019;-84
2022/02/09 06:05:53;;;;;;;;;;;;;;;8.27;100.00;99348.75;5064176;28;19976;-84
2022/02/09 06:08:23;;;;;;;;;;;;;;;8.50;100.00;99355.44;5114205;27;19938;-83
2022/02/09 06:11:06;;;;;;;;;;;;;;;8.49;100.00;99364.22;5063916;28;20417;-83
2022/02/09 06:13:55;;;;;;;;;;;;;;;8.49;100.00;99365.00;5083396;28;19924;-83
2022/02/09 06:21:39;;;;;;;;;;;;;;;8.52;100.00;99364.22;5079527;28;20400;-83
2022/02/09 06:24:06;;;;;;;;;;;;;;;8.49;100.00;99362.22;5080870;28;19932;-83
2022/02/09 06:26:34;;;;;;;;;;;;;;;8.42;100.00;99362.22;5097626;28;19924;-83
2022/02/09 06:29:09;;;;;;;;;;;;;;;8.53;100.00;99360.22;5081598;28;20061;-83
2022/02/09 06:31:37;;;;;;;;;;;;;;;8.46;100.00;99359.44;5064014;28;19928;-83
2022/02/09 06:34:16;;;;;;;;;;;;;;;8.30;100.00;99362.66;5115828;28;19930;-83
2022/02/09 06:36:58;;;;;;;;;;;;;;;8.66;100.00;99361.34;5080486;28;20375;-83
2022/02/09 06:39:27;;;;;;;;;;;;;;;8.44;100.00;99364.59;5097722;28;19924;-82
2022/02/09 06:41:55;;;;;;;;;;;;;;;8.59;100.00;99358.59;5063979;28;19923;-83
2022/02/09 06:44:25;;;;;;;;;;;;;;;8.79;100.00;99370.88;5097051;28;19972;-83
2022/02/09 06:46:52;;;;;;;;;;;;;;;8.37;100.00;99376.59;5079878;28;19924;-83
2022/02/09 06:49:21;;;;;;;;;;;;;;;8.66;100.00;99377.28;5097440;28;19924;-83
2022/02/09 06:51:49;;;;;;;;;;;;;;;8.61;100.00;99375.72;5062427;28;19924;-83
2022/02/09 06:54:32;;;;;;;;;;;;;;;8.67;100.00;99367.72;5080846;28;19970;-83
2022/02/09 06:57:09;;;;;;;;;;;;;;;8.59;100.00;99375.31;5097230;28;19946;-83
2022/02/09 06:59:41;;;;;;;;;;;;;;;8.59;100.00;99372.53;5080844;28;19924;-83
2022/02/09 07:02:08;;;;;;;;;;;;;;;8.79;100.00;99376.44;5080001;28;19938;-83
2022/02/09 07:04:37;;;;;;;;;;;;;;;8.55;100.00;99371.75;5080296;28;19969;-83
2022/02/09 07:07:07;;;;;;;;;;;;;;;8.53;100.00;99374.13;5080628;28;19955;-83
2022/02/09 07:09:36;;;;;;;;;;;;;;;8.41;100.00;99371.78;5097578;28;20350;-83
2022/02/09 07:12:04;;;;;;;;;;;;;;;8.54;100.00;99381.28;5062917;28;19928;-83
2022/02/09 07:14:34;;;;;;;;;;;;;;;8.43;100.00;99374.16;5097011;28;19924;-84
2022/02/09 07:17:02;;;;;;;;;;;;;;;8.47;100.00;99378.53;5096743;28;19930;-83
2022/02/09 07:19:30;;;;;;;;;;;;;;;8.59;100.00;99383.66;5096431;28;19959;-83
2022/02/09 07:21:57;;;;;;;;;;;;;;;8.62;100.00;99377.28;5096450;28;20014;-83
2022/02/09 07:24:29;;;;;;;;;;;;;;;8.72;100.00;99379.25;5096242;28;19924;-83
2022/02/09 07:27:40;;;;;;;;;;;;;;;8.72;100.00;99373.66;5097110;28;19969;-83
2022/02/09 07:29:50;;;;;;;;;;;;;;;8.55;100.00;99362.59;5061213;28;19924;-83
2022/02/09 07:32:17;;;;;;;;;;;;;;;8.24;100.00;99367.03;5096442;28;19931;-79
2022/02/09 07:34:44;;;;;;;;;;;;;;;8.33;100.00;99381.34;5096334;28;19923;-82
2022/02/09 07:37:13;;;;;;;;;;;;;;;8.47;100.00;99378.53;5113222;28;20298;-80
2022/02/09 07:39:44;;;;;;;;;;;;;;;8.43;100.00;99382.53;5096369;28;20373;-82
2022/02/09 07:42:13;;;;;;;;;;;;;;;8.49;100.00;99381.72;5110199;28;19947;-79
2022/02/09 07:44:59;;;;;;;;;;;;;;;8.48;100.00;99385.69;5096238;28;19932;-82
2022/02/09 07:47:40;;;;;;;;;;;;;;;8.66;100.00;99380.84;5062897;28;19930;-80
2022/02/09 07:52:50;;;;;;;;;;;;;;;8.58;100.00;99382.09;5114829;28;20016;-81
2022/02/09 07:55:18;;;;;;;;;;;;;;;8.53;100.00;99371.34;5096451;28;19938;-81
2022/02/09 07:57:45;;;;;;;;;;;;;;;8.46;100.00;99376.97;5096268;28;19967;-80
2022/02/09 08:00:13;;;;;;;;;;;;;;;8.57;100.00;99391.63;5114425;28;20401;-81
2022/02/09 08:02:45;;;;;;;;;;;;;;;8.59;100.00;99383.66;5097038;28;20371;-80
2022/02/09 08:05:13;;;;;;;;;;;;;;;8.48;100.00;99382.91;5083666;28;19951;-80
2022/02/09 08:07:42;;;;;;;;;;;;;;;8.48;100.00;99382.13;5083587;28;19924;-80
2022/02/09 08:10:16;;;;;;;;;;;;;;;8.57;100.00;99391.63;5099980;28;19977;-81
2022/02/09 08:29:45;;;;;;;;;;;;;;;8.48;100.00;99416.31;5018752;28;19924;-80
2022/02/09 08:32:37;;;;;;;;;;;;;;;8.32;100.00;99413.19;5018239;28;19924;-82
2022/02/09 08:35:05;;;;;;;;;;;;;;;8.43;100.00;99405.59;5019156;28;20332;-83
2022/02/09 08:37:32;;;;;;;;;;;;;;;8.39;100.00;99402.00;5018611;28;19951;-83
2022/02/09 08:39:59;;;;;;;;;;;;;;;8.46;100.00;99421.50;5002084;28;19948;-84
2022/02/09 08:42:26;;;;;;;;;;;;;;;8.34;100.00;99421.94;5002265;28;19925;-80
2022/02/09 08:44:54;;;;;;;;;;;;;;;8.40;100.00;99437.03;5018904;28;19995;-82
2022/02/09 08:47:35;;;;;;;;;;;;;;;8.24;100.00;99433.84;5020192;28;21029;-82
2022/02/09 08:50:03;;;;;;;;;;;;;;;7.73;100.00;99433.44;5018656;28;20019;-82
2022/02/09 08:52:33;;;;;;;;;;;;;;;7.49;100.00;99436.97;5002168;28;19925;-82
2022/02/09 08:55:00;;;;;;;;;;;;;;;7.46;100.00;99451.66;5039442;28;19993;-81
2022/02/09 08:57:29;;;;;;;;;;;;;;;7.46;100.00;99454.44;5044241;27;19923;-81
2022/02/09 08:59:58;;;;;;;;;;;;;;;7.65;100.00;99462.41;5102503;27;20378;-81
2022/02/09 09:02:34;;;;;;;;;;;;;;;7.56;100.00;99464.00;5138311;27;20014;-81
2022/02/09 09:05:15;;;;;;;;;;;;;;;7.47;100.00;99467.16;5097773;27;19934;-81
2022/02/09 09:07:48;;;;;;;;;;;;;;;7.49;100.00;99464.78;5118100;27;20367;-81
2022/02/09 09:10:24;;;;;;;;;;;;;;;7.59;100.00;99463.22;5119855;27;19924;-81
2022/02/09 09:41:22;;;;;;;;;;;;;;;8.19;100.00;99478.78;5053502;28;19925;-79
2022/02/09 10:05:45;;;;;;;;;;;;;;;8.18;100.00;99490.31;5056184;28;19924;-80
2022/02/09 10:31:22;;;;;;;;;;;;;;;8.49;100.00;99500.66;5116717;27;19928;-79
2022/02/09 10:34:15;;;;;;;;;;;;;;;8.51;100.00;99507.41;5135007;27;19955;-79
2022/02/09 10:36:47;;;;;;;;;;;;;;;8.41;100.00;99477.59;5135023;27;20394;-79
2022/02/09 10:39:18;;;;;;;;;;;;;;;8.31;100.00;99500.69;5134911;27;20014;-79
2022/02/09 10:41:51;;;;;;;;;;;;;;;8.36;100.00;99503.06;5116328;27;20408;-80
2022/02/09 10:44:24;;;;;;;;;;;;;;;8.29;100.00;99494.72;5114890;27;20007;-79
2022/02/09 10:46:52;;;;;;;;;;;;;;;8.38;100.00;99502.66;5116620;27;19972;-79
2022/02/09 10:49:22;;;;;;;;;;;;;;;8.59;100.00;99508.22;5116263;27;19934;-80
2022/02/09 10:52:05;;;;;;;;;;;;;;;8.42;100.00;99506.25;5134680;27;19927;-80
2022/02/09 10:54:33;;;;;;;;;;;;;;;8.60;100.00;99518.19;5134909;27;20004;-79
2022/02/09 10:57:02;;;;;;;;;;;;;;;8.55;100.00;99505.44;5099358;27;20323;-79
2022/02/09 10:59:31;;;;;;;;;;;;;;;8.56;100.00;99512.59;5116403;27;19962;-79
2022/02/09 11:02:00;;;;;;;;;;;;;;;8.39;100.00;99516.19;5099360;27;19963;-79
2022/02/09 11:04:29;;;;;;;;;;;;;;;8.55;100.00;99516.59;5116277;27;19924;-79
2022/02/09 11:06:56;;;;;;;;;;;;;;;8.66;100.00;99522.16;5099444;27;19924;-79
2022/02/09 11:09:27;;;;;;;;;;;;;;;8.61;100.00;99519.75;5082951;27;20389;-79
2022/02/09 11:11:55;;;;;;;;;;;;;;;8.69;100.00;99499.84;5134034;27;19930;-79
2022/02/09 11:14:24;;;;;;;;;;;;;;;8.37;100.00;99476.81;5134133;27;20033;-79
2022/02/09 11:16:59;;;;;;;;;;;;;;;8.33;100.00;99491.94;5098967;27;20378;-79
2022/02/09 11:19:33;;;;;;;;;;;;;;;8.50;100.00;99522.56;5134402;27;20149;-79
2022/02/09 11:22:04;;;;;;;;;;;;;;;8.76;100.00;99529.69;5134392;27;19924;-79
2022/02/09 11:24:31;;;;;;;;;;;;;;;8.87;100.00;99530.47;5134317;27;19923;-79
2022/02/09 11:27:16;;;;;;;;;;;;;;;8.81;100.00;99532.88;5098533;28;20305;-79
2022/02/09 11:29:59;;;;;;;;;;;;;;;9.04;100.00;99544.34;5116005;28;19950;-79
2022/02/09 11:32:36;;;;;;;;;;;;;;;8.96;100.00;99530.84;5115890;28;19930;-79
2022/02/09 11:35:21;;;;;;;;;;;;;;;8.80;100.00;99522.91;5115801;27;19927;-79
2022/02/09 11:40:55;;;;;;;;;;;;;;;8.64;100.00;99536.47;5098436;28;19953;-79
2022/02/09 11:43:30;;;;;;;;;;;;;;;8.93;100.00;99537.22;5133894;28;20331;-79
2022/02/09 11:57:26;;;;;;;;;;;;;;;8.83;100.00;99527.69;5115736;28;20382;-79
2022/02/09 12:11:11;;;;;;;;;;;;;;;8.68;100.00;99517.75;5115312;28;20006;-79
2022/02/09 12:19:02;;;;;;;;;;;;;;;8.31;100.00;99522.97;5115437;28;20325;-79
2022/02/09 12:21:40;;;;;;;;;;;;;;;8.64;100.00;99536.47;5115441;28;19930;-79
2022/02/09 12:24:21;;;;;;;;;;;;;;;8.56;100.00;99507.03;5133649;28;19928;-79
2022/02/09 12:26:58;;;;;;;;;;;;;;;8.80;100.00;99528.47;5115405;28;19931;-79
2022/02/09 12:29:41;;;;;;;;;;;;;;;8.39;100.00;99501.47;5133565;28;19962;-79
2022/02/09 12:32:11;;;;;;;;;;;;;;;8.69;100.00;99510.97;5115443;28;19963;-79
2022/02/09 12:34:41;;;;;;;;;;;;;;;8.62;100.00;99511.00;5133763;28;19927;-79
2022/02/09 12:37:12;;;;;;;;;;;;;;;8.71;100.00;99513.38;5098387;28;19963;-79
2022/02/09 12:39:48;;;;;;;;;;;;;;;8.16;100.00;99512.97;5098138;28;19976;-79
2022/02/09 12:42:15;;;;;;;;;;;;;;;8.48;100.00;99521.38;5098413;28;19931;-79
2022/02/09 12:44:55;;;;;;;;;;;;;;;8.23;100.00;99499.09;5115201;28;19924;-79
2022/02/09 12:47:27;;;;;;;;;;;;;;;8.39;100.00;99502.25;5133613;28;19927;-79
2022/02/09 12:49:54;;;;;;;;;;;;;;;8.38;100.00;99506.25;5116384;27;19927;-79
2022/02/09 12:52:26;;;;;;;;;;;;;;;8.28;100.00;99490.34;5118473;27;19930;-79
2022/02/09 12:55:07;;;;;;;;;;;;;;;8.27;100.00;99487.97;5102236;27;19966;-78
2022/02/09 12:57:38;;;;;;;;;;;;;;;8.44;100.00;99484.34;5118601;27;19931;-79
2022/02/09 13:00:07;;;;;;;;;;;;;;;8.42;100.00;99484.75;5118621;27;19923;-79
2022/02/09 13:02:41;;;;;;;;;;;;;;;8.56;100.00;99490.31;5118550;27;20026;-79
2022/02/09 13:05:08;;;;;;;;;;;;;;;8.38;100.00;99500.69;5136810;27;19924;-79
2022/02/09 13:07:35;;;;;;;;;;;;;;;8.31;100.00;99489.56;5136865;27;19995;-79
2022/02/09 13:10:06;;;;;;;;;;;;;;;8.22;100.00;99497.50;5137033;27;19955;-79
2022/02/09 13:12:40;;;;;;;;;;;;;;;8.19;100.00;99498.28;5084607;27;19929;-79
2022/02/09 13:15:20;;;;;;;;;;;;;;;8.06;100.00;99496.25;5118303;27;20351;-79
2022/02/09 13:17:56;;;;;;;;;;;;;;;7.91;100.00;99486.28;5101201;27;20010;-78
2022/02/09 14:59:18;;;;;;;;;;;;;;;8.47;100.00;99492.72;5051220;28;19925;-79
2022/02/09 15:01:54;;;;;;;;;;;;;;;8.53;100.00;99490.31;5051067;28;19971;-79
2022/02/09 15:04:50;;;;;;;;;;;;;;;8.53;100.00;99493.91;5034231;28;20372;-79
2022/02/09 15:09:55;;;;;;;;;;;;;;;8.43;100.00;99502.25;5034152;28;19960;-79
2022/02/09 15:12:30;;;;;;;;;;;;;;;8.34;100.00;99507.44;5017138;28;19928;-79
2022/02/09 15:23:16;;;;;;;;;;;;;;;8.10;100.00;99505.41;4991565;28;20369;-79
2022/02/09 15:25:43;;;;;;;;;;;;;;;7.96;100.00;99511.75;4991591;28;19989;-79
2022/02/09 15:28:12;;;;;;;;;;;;;;;7.84;100.00;99508.56;5008507;28;19932;-78
2022/02/09 15:31:34;;;;;;;;;;;;;;;7.53;100.00;99487.81;4997946;28;19929;-79
2022/02/09 15:33:37;;;;;;;;;;;;;;;7.50;100.00;99494.16;5010845;28;19925;-79
2022/02/09 15:36:35;;;;;;;;;;;;;;;7.48;100.00;99471.53;4997997;28;20418;-79
2022/02/09 15:39:02;;;;;;;;;;;;;;;7.50;100.00;99485.81;5014455;28;19932;-79
2022/02/09 15:41:41;;;;;;;;;;;;;;;7.58;100.00;99494.97;5030601;28;20372;-78
2022/02/09 15:56:16;;;;;;;;;;;;;;;7.35;100.00;99507.22;4997920;28;20028;-79
2022/02/09 16:06:05;;;;;;;;;;;;;;;7.20;100.00;99494.47;5123797;28;20010;-77
2022/02/09 16:19:59;;;;;;;;;;;;;;;7.43;100.00;99494.16;4978143;28;19929;-78
2022/02/09 16:33:32;;;;;;;;;;;;;;;7.11;100.00;99482.91;5034399;28;20007;-77
2022/02/09 16:44:37;;;;;;;;;;;;;;;6.90;100.00;99476.44;5014244;28;19995;-77
2022/02/09 16:47:08;;;;;;;;;;;;;;;7.22;100.00;99485.75;4982108;28;19964;-78
2022/02/09 16:52:15;;;;;;;;;;;;;;;7.08;100.00;99491.22;4998160;28;19929;-78
2022/02/09 16:55:10;;;;;;;;;;;;;;;7.24;100.00;99472.22;5045995;28;19930;-78
2022/02/09 17:11:10;;;;;;;;;;;;;;;7.04;100.00;99509.88;5115279;28;19924;-77
2022/02/09 17:19:31;;;;;;;;;;;;;;;7.24;100.00;99498.03;5098540;28;20290;-78
2022/02/09 17:21:59;;;;;;;;;;;;;;;7.02;100.00;99501.13;5081742;28;19980;-77
2022/02/09 17:24:26;;;;;;;;;;;;;;;6.89;100.00;99494.31;5098511;28;19996;-77
2022/02/09 17:26:54;;;;;;;;;;;;;;;7.02;100.00;99490.00;5096771;27;20426;-78
2022/02/09 17:29:26;;;;;;;;;;;;;;;6.77;100.00;99494.66;5104755;27;19941;-78
2022/02/09 17:32:07;;;;;;;;;;;;;;;7.04;100.00;99493.19;5135930;27;19958;-78
2022/02/09 17:53:32;;;;;;;;;;;;;;;6.89;100.00;99508.19;5098090;28;19976;-78
2022/02/09 17:58:37;;;;;;;;;;;;;;;7.23;100.00;99512.34;5097333;28;19931;-78
2022/02/09 18:01:04;;;;;;;;;;;;;;;7.30;100.00;99509.56;5115764;28;19950;-78
2022/02/09 18:03:32;;;;;;;;;;;;;;;7.07;100.00;99504.31;5098036;28;19983;-77
2022/02/09 18:06:13;;;;;;;;;;;;;;;7.18;100.00;99505.16;5115797;28;20014;-76
2022/02/09 18:14:22;;;;;;;;;;;;;;;6.92;100.00;99493.53;5114891;28;19928;-77
2022/02/09 18:25:18;;;;;;;;;;;;;;;7.23;100.00;99490.91;5136099;27;19923;-77
2022/02/09 18:44:39;;;;;;;;;;;;;;;7.02;100.00;99482.47;5115717;27;19928;-77
2022/02/09 19:03:04;;;;;;;;;;;;;;;7.51;100.00;99498.56;5096703;28;20020;-77
2022/02/09 19:05:40;;;;;;;;;;;;;;;7.53;100.00;99500.94;5114786;28;19963;-77
2022/02/09 19:08:16;;;;;;;;;;;;;;;7.39;100.00;99504.47;5079970;28;19966;-77
2022/02/09 19:32:34;;;;;;;;;;;;;;;7.50;100.00;99494.16;5015251;28;19960;-77
2022/02/09 19:48:31;;;;;;;;;;;;;;;7.67;100.00;99485.06;5031273;28;20383;-78
2022/02/09 19:56:16;;;;;;;;;;;;;;;7.41;100.00;99490.97;5031609;28;20474;-78
2022/02/09 19:58:58;;;;;;;;;;;;;;;7.23;100.00;99490.09;5032718;28;20513;-77
2022/02/09 20:01:44;;;;;;;;;;;;;;;7.24;100.00;99488.91;5075539;28;19928;-77
2022/02/09 20:04:14;;;;;;;;;;;;;;;7.35;100.00;99498.88;5058734;28;19931;-77
2022/02/09 20:06:43;;;;;;;;;;;;;;;7.04;100.00;99493.19;5075352;28;20496;-78
2022/02/09 20:09:10;;;;;;;;;;;;;;;7.29;100.00;99494.09;5075164;28;19928;-78
2022/02/09 20:11:41;;;;;;;;;;;;;;;7.37;100.00;99495.72;5041991;28;19924;-78
2022/02/09 20:14:12;;;;;;;;;;;;;;;7.33;100.00;99486.56;5042668;28;19928;-78
2022/02/09 20:16:39;;;;;;;;;;;;;;;7.32;100.00;99488.56;5075133;28;20372;-78
2022/02/09 20:19:06;;;;;;;;;;;;;;;7.23;100.00;99484.53;5069773;28;19928;-78
2022/02/09 20:21:33;;;;;;;;;;;;;;;7.40;100.00;99481.03;5118038;28;20010;-78
2022/02/09 20:24:04;;;;;;;;;;;;;;;7.40;100.00;99478.25;5082821;28;19988;-78
2022/02/09 20:26:31;;;;;;;;;;;;;;;7.36;100.00;99486.56;5118130;28;20383;-78
2022/02/09 20:29:07;;;;;;;;;;;;;;;7.46;100.00;99487.81;5099897;28;19977;-78
2022/02/09 20:31:44;;;;;;;;;;;;;;;7.55;100.00;99485.44;5117758;28;19977;-78
2022/02/09 20:34:35;;;;;;;;;;;;;;;7.29;100.00;99485.75;5099606;28;19924;-78
2022/02/09 20:37:02;;;;;;;;;;;;;;;7.29;100.00;99477.41;5082251;27;22052;-78
2022/02/09 20:39:36;;;;;;;;;;;;;;;7.33;100.00;99467.09;5104260;27;20030;-78
2022/02/09 20:42:06;;;;;;;;;;;;;;;7.22;100.00;99471.84;5120000;27;20010;-78
2022/02/09 20:44:39;;;;;;;;;;;;;;;7.15;100.00;99469.00;5138300;27;19931;-78
2022/02/09 20:47:08;;;;;;;;;;;;;;;7.18;100.00;99471.00;5119777;27;19955;-78
2022/02/09 20:49:35;;;;;;;;;;;;;;;7.41;100.00;99463.16;5102481;27;19923;-78
2022/02/09 20:52:03;;;;;;;;;;;;;;;7.61;100.00;99467.19;5119532;27;20027;-78
2022/02/09 20:54:30;;;;;;;;;;;;;;;7.61;100.00;99461.63;5130186;27;19932;-78
2022/02/09 20:56:57;;;;;;;;;;;;;;;7.57;100.00;99460.81;5126621;27;19923;-78
2022/02/09 20:59:27;;;;;;;;;;;;;;;7.53;100.00;99468.34;5093071;27;19923;-78
2022/02/09 21:02:15;;;;;;;;;;;;;;;7.62;100.00;99471.53;5092792;27;19923;-79
2022/02/09 21:04:46;;;;;;;;;;;;;;;7.66;100.00;99464.03;5125570;27;19924;-77
2022/02/09 21:07:28;;;;;;;;;;;;;;;7.69;100.00;99456.88;5108516;27;19923;-78
2022/02/09 21:10:06;;;;;;;;;;;;;;;7.86;100.00;99461.66;5107387;28;19924;-78
2022/02/09 21:12:45;;;;;;;;;;;;;;;7.82;100.00;99453.31;5103072;28;19924;-78
2022/02/09 21:27:21;;;;;;;;;;;;;;;7.58;100.00;99464.38;5113183;28;20248;-78
2022/02/09 21:54:04;;;;;;;;;;;;;;;7.20;100.00;99457.53;5094658;27;20012;-79
2022/02/09 21:56:55;;;;;;;;;;;;;;;7.40;100.00;99456.00;5089381;27;19938;-79
2022/02/09 21:59:54;;;;;;;;;;;;;;;7.32;100.00;99459.94;5115821;28;19924;-79
2022/02/09 22:29:47;;;;;;;;;;;;;;;7.21;100.00;99446.03;5100521;27;19923;-78
2022/02/09 22:56:42;;;;;;;;;;;;;;;6.95;100.00;99428.88;5114941;28;19992;-77
2022/02/09 22:59:43;;;;;;;;;;;;;;;7.06;100.00;99424.94;5096709;28;19977;-77
2022/02/09 23:02:28;;;;;;;;;;;;;;;7.21;100.00;99417.41;5096431;28;20282;-76
2022/02/09 23:07:29;;;;;;;;;;;;;;;7.09;100.00;99417.78;5096449;28;19939;-77
2022/02/09 23:15:31;;;;;;;;;;;;;;;7.25;100.00;99409.91;5114527;28;19924;-77
